createdAt,value
2022-10-05T00:13:03.719Z,58.29
2022-10-05T00:34:49.691Z,59.99
2022-10-05T00:56:50.130Z,59.31
2022-10-05T01:18:45.119Z,67.78
2022-10-05T01:40:39.891Z,52.43
2022-10-05T02:02:27.151Z,62.28
2022-10-05T02:24:19.599Z,54.77
2022-10-05T02:46:15.794Z,67.92
2022-10-05T03:08:06.170Z,58.36
2022-10-05T03:29:59.557Z,62.73
2022-10-05T03:51:51.459Z,58.84
2022-10-05T04:13:43.921Z,64.51
2022-10-05T04:35:46.131Z,53.26
2022-10-05T04:57:38.734Z,66.83
2022-10-05T05:19:40.514Z,54.47
2022-10-05T05:41:37.354Z,67.34
2022-10-05T06:03:28.814Z,53.02
2022-10-05T06:25:33.375Z,65.95
2022-10-05T06:47:31.051Z,54.40
2022-10-05T07:09:42.489Z,64.88
2022-10-05T07:31:35.057Z,51.59
2022-10-05T07:53:25.653Z,57.12
2022-10-05T08:15:17.442Z,58.58
2022-10-05T08:37:09.961Z,49.58
2022-10-05T08:59:16.860Z,43.58
2022-10-05T09:21:09.757Z,41.40
2022-10-05T09:43:23.954Z,36.67
2022-10-05T10:05:35.304Z,35.35
2022-10-05T10:27:37.463Z,37.15
2022-10-05T10:49:42.566Z,36.85
2022-10-05T11:11:52.500Z,40.08
2022-10-05T11:34:11.997Z,42.34
2022-10-05T11:56:07.962Z,43.58
2022-10-05T12:18:04.768Z,43.47
2022-10-05T12:39:57.728Z,41.96
2022-10-05T13:01:51.182Z,42.46
2022-10-05T13:23:47.484Z,43.16
2022-10-05T13:45:41.311Z,43.17
2022-10-05T14:07:35.495Z,42.13
2022-10-05T14:29:25.362Z,42.97
2022-10-05T14:51:25.615Z,43.42
2022-10-05T15:13:20.606Z,44.81
2022-10-05T15:35:28.964Z,46.44
2022-10-05T15:57:26.442Z,48.10
2022-10-05T16:19:23.198Z,50.16
2022-10-05T16:41:14.848Z,52.42
2022-10-05T17:03:19.738Z,54.64
2022-10-05T17:25:15.049Z,56.07
2022-10-05T17:47:04.119Z,57.53
2022-10-05T18:08:51.243Z,58.94
2022-10-05T18:30:53.302Z,60.06
2022-10-05T18:52:54.843Z,55.34
2022-10-05T19:14:50.678Z,58.55
2022-10-05T19:36:54.620Z,54.31
2022-10-05T19:58:41.997Z,60.36
2022-10-05T20:20:37.073Z,53.13
2022-10-05T20:42:23.948Z,67.24
2022-10-05T21:04:09.721Z,52.88
2022-10-05T21:25:55.734Z,64.20
2022-10-05T21:47:42.055Z,53.77
2022-10-05T22:09:28.040Z,67.51
2022-10-05T22:31:14.713Z,57.59
2022-10-05T22:53:00.460Z,59.79
2022-10-05T23:14:46.277Z,59.16
2022-10-05T23:36:32.859Z,58.22
2022-10-05T23:58:18.952Z,56.16
